createdAt,value
2023-03-06T00:01:08.880Z,3.70
2023-03-06T00:03:10.501Z,3.70
2023-03-06T00:05:12.715Z,3.60
2023-03-06T00:07:14.343Z,3.60
2023-03-06T00:09:15.932Z,3.50
2023-03-06T00:11:18.114Z,3.50
2023-03-06T00:13:19.919Z,3.60
2023-03-06T00:15:22.005Z,3.60
2023-03-06T00:17:23.725Z,3.50
2023-03-06T00:19:25.439Z,3.60
2023-03-06T00:21:26.996Z,3.50
2023-03-06T00:23:28.682Z,3.50
2023-03-06T00:25:30.340Z,3.40
2023-03-06T00:27:32.725Z,3.50
2023-03-06T00:29:34.293Z,3.50
2023-03-06T00:31:37.020Z,3.40
2023-03-06T00:33:38.765Z,3.40
2023-03-06T00:35:41.183Z,3.50
2023-03-06T00:37:43.420Z,3.50
2023-03-06T00:39:45.282Z,3.40
2023-03-06T00:41:47.181Z,3.40
2023-03-06T00:43:49.202Z,3.50
2023-03-06T00:45:50.863Z,3.40
2023-03-06T00:47:52.631Z,3.40
2023-03-06T00:49:55.181Z,3.40
2023-03-06T00:51:56.893Z,3.40
2023-03-06T00:53:58.450Z,3.50
2023-03-06T00:56:00.139Z,3.40
2023-03-06T00:58:01.761Z,3.40
2023-03-06T01:00:04.221Z,3.50
2023-03-06T01:02:05.911Z,3.40
2023-03-06T01:04:07.546Z,3.50
2023-03-06T01:06:09.242Z,3.60
2023-03-06T01:08:10.998Z,3.60
2023-03-06T01:10:12.722Z,3.60
2023-03-06T01:12:14.398Z,3.50
2023-03-06T01:14:16.016Z,3.50
2023-03-06T01:16:19.166Z,3.50
2023-03-06T01:18:20.838Z,3.60
2023-03-06T01:20:22.501Z,3.60
2023-03-06T01:22:24.168Z,3.50
2023-03-06T01:24:25.910Z,3.40
2023-03-06T01:26:27.668Z,3.40
2023-03-06T01:28:29.863Z,3.40
2023-03-06T01:30:31.482Z,3.40
2023-03-06T01:32:33.281Z,3.40
2023-03-06T01:34:35.014Z,3.40
2023-03-06T01:36:36.670Z,3.30
2023-03-06T01:38:38.698Z,3.40
2023-03-06T01:40:40.477Z,3.30
2023-03-06T01:42:42.146Z,3.30
2023-03-06T01:45:02.006Z,3.30
2023-03-06T01:47:03.628Z,3.30
2023-03-06T01:49:11.327Z,3.30
2023-03-06T01:51:13.016Z,3.30
2023-03-06T01:53:15.220Z,3.30
2023-03-06T01:55:19.294Z,3.30
2023-03-06T01:57:23.297Z,3.30
2023-03-06T01:59:26.913Z,3.20
2023-03-06T02:01:29.319Z,3.20
2023-03-06T02:03:31.922Z,3.20
2023-03-06T02:05:34.066Z,3.20
2023-03-06T02:07:36.214Z,3.20
2023-03-06T02:09:38.529Z,3.20
2023-03-06T02:11:43.928Z,3.20
2023-03-06T02:13:46.007Z,3.20
2023-03-06T02:15:47.898Z,3.20
2023-03-06T02:17:50.513Z,3.20
2023-03-06T02:19:57.954Z,3.20
2023-03-06T02:21:59.620Z,3.20
2023-03-06T02:24:21.486Z,3.20
2023-03-06T02:26:23.780Z,3.20
2023-03-06T02:28:25.392Z,3.20
2023-03-06T02:30:28.051Z,3.20
2023-03-06T02:32:29.721Z,3.20
2023-03-06T02:34:37.509Z,3.20
2023-03-06T02:36:42.146Z,3.20
2023-03-06T02:38:47.386Z,3.10
2023-03-06T02:40:50.962Z,3.10
2023-03-06T02:42:56.169Z,3.10
2023-03-06T02:44:59.267Z,3.10
2023-03-06T02:47:01.177Z,3.10
2023-03-06T02:49:02.801Z,3.20
2023-03-06T02:51:04.443Z,3.10
2023-03-06T02:53:06.988Z,3.10
2023-03-06T02:55:08.827Z,3.10
2023-03-06T02:57:10.482Z,3.10
2023-03-06T02:59:12.247Z,3.00
2023-03-06T03:01:13.933Z,3.00
2023-03-06T03:03:15.688Z,3.00
2023-03-06T03:05:17.305Z,3.00
2023-03-06T03:07:18.902Z,3.00
2023-03-06T03:09:20.618Z,2.90
2023-03-06T03:11:22.230Z,2.90
2023-03-06T03:13:24.259Z,2.90
2023-03-06T03:15:25.848Z,2.90
2023-03-06T03:17:27.499Z,3.00
2023-03-06T03:19:29.135Z,3.00
2023-03-06T03:21:30.777Z,3.00
2023-03-06T03:23:32.308Z,3.00
2023-03-06T03:25:33.874Z,3.00
2023-03-06T03:27:35.487Z,3.00
2023-03-06T03:29:37.233Z,3.00
2023-03-06T03:31:38.853Z,3.00
2023-03-06T03:33:40.884Z,3.00
2023-03-06T03:35:42.542Z,3.00
2023-03-06T03:37:44.222Z,3.00
2023-03-06T03:39:45.819Z,3.00
2023-03-06T03:41:47.403Z,2.90
2023-03-06T03:43:49.044Z,2.90
2023-03-06T03:45:52.401Z,2.90
2023-03-06T03:47:54.063Z,2.90
2023-03-06T03:49:55.710Z,2.90
2023-03-06T03:51:57.387Z,2.90
2023-03-06T03:53:59.101Z,3.00
2023-03-06T03:56:00.719Z,3.00
2023-03-06T03:58:02.379Z,3.00
2023-03-06T04:00:05.109Z,2.90
2023-03-06T04:02:06.716Z,2.90
2023-03-06T04:04:08.357Z,2.90
2023-03-06T04:06:10.014Z,2.90
2023-03-06T04:08:11.576Z,2.90
2023-03-06T04:10:13.474Z,2.90
2023-03-06T04:12:15.480Z,2.90
2023-03-06T04:14:17.088Z,2.90
2023-03-06T04:16:18.703Z,2.90
2023-03-06T04:18:20.699Z,2.90
2023-03-06T04:20:22.261Z,2.90
2023-03-06T04:22:23.840Z,2.90
2023-03-06T04:24:25.412Z,2.80
2023-03-06T04:26:27.074Z,2.80
2023-03-06T04:28:28.764Z,2.80
2023-03-06T04:30:30.432Z,2.80
2023-03-06T04:32:32.229Z,2.80
2023-03-06T04:34:33.804Z,2.70
2023-03-06T04:36:35.357Z,2.80
2023-03-06T04:38:36.980Z,2.80
2023-03-06T04:40:38.896Z,2.80
2023-03-06T04:42:40.528Z,2.90
2023-03-06T04:44:42.207Z,2.90
2023-03-06T04:46:43.892Z,2.90
2023-03-06T04:48:45.493Z,2.90
2023-03-06T04:50:47.123Z,2.80
2023-03-06T04:52:48.756Z,2.80
2023-03-06T04:54:50.367Z,2.80
2023-03-06T04:56:51.974Z,2.90
2023-03-06T04:58:53.660Z,2.90
2023-03-06T05:00:55.405Z,2.80
2023-03-06T05:02:58.229Z,2.80
2023-03-06T05:04:59.770Z,2.80
2023-03-06T05:07:01.337Z,2.80
2023-03-06T05:09:02.995Z,2.80
2023-03-06T05:11:04.820Z,2.80
2023-03-06T05:13:06.434Z,2.70
2023-03-06T05:15:08.756Z,2.60
2023-03-06T05:17:10.558Z,2.60
2023-03-06T05:19:12.176Z,2.60
2023-03-06T05:21:13.925Z,2.60
2023-03-06T05:23:15.597Z,2.60
2023-03-06T05:25:17.335Z,2.60
2023-03-06T05:27:19.064Z,2.60
2023-03-06T05:29:21.124Z,2.60
2023-03-06T05:31:22.820Z,2.60
2023-03-06T05:33:24.680Z,2.60
2023-03-06T05:35:26.368Z,2.60
2023-03-06T05:37:28.100Z,2.60
2023-03-06T05:39:30.179Z,2.60
2023-03-06T05:41:31.735Z,2.60
2023-03-06T05:43:33.383Z,2.60
2023-03-06T05:45:35.372Z,2.60
2023-03-06T05:47:37.261Z,2.60
2023-03-06T05:49:39.008Z,2.60
2023-03-06T05:51:40.645Z,2.50
2023-03-06T05:53:42.249Z,2.50
2023-03-06T05:55:43.810Z,2.50
2023-03-06T05:57:45.513Z,2.40
2023-03-06T05:59:47.533Z,2.40
2023-03-06T06:01:49.136Z,2.40
2023-03-06T06:03:51.124Z,2.40
2023-03-06T06:05:52.750Z,2.40
2023-03-06T06:07:54.479Z,2.40
2023-03-06T06:09:56.101Z,2.40
2023-03-06T06:12:02.001Z,2.60
2023-03-06T06:14:03.638Z,2.60
2023-03-06T06:16:12.369Z,2.60
2023-03-06T06:18:14.118Z,2.60
2023-03-06T06:20:17.225Z,2.60
2023-03-06T06:22:18.884Z,2.70
2023-03-06T06:24:22.178Z,2.70
2023-03-06T06:26:23.781Z,2.70
2023-03-06T06:28:25.398Z,2.60
2023-03-06T06:30:27.106Z,2.70
2023-03-06T06:32:28.902Z,2.70
2023-03-06T06:34:31.791Z,2.80
2023-03-06T06:36:33.941Z,2.70
2023-03-06T06:38:35.601Z,2.70
2023-03-06T06:40:37.239Z,2.70
2023-03-06T06:42:40.293Z,2.70
2023-03-06T06:44:42.159Z,2.70
2023-03-06T06:49:07.070Z,2.70
2023-03-06T06:51:08.722Z,2.80
2023-03-06T06:53:10.382Z,2.90
2023-03-06T06:55:12.372Z,2.80
2023-03-06T06:57:14.705Z,2.80
2023-03-06T06:59:17.605Z,2.80
2023-03-06T07:01:19.416Z,2.90
2023-03-06T07:03:21.118Z,2.90
2023-03-06T07:05:24.206Z,2.90
2023-03-06T07:07:26.618Z,2.90
2023-03-06T07:09:30.744Z,2.90
2023-03-06T07:11:32.408Z,2.90
2023-03-06T07:13:34.252Z,2.90
2023-03-06T07:15:35.844Z,2.90
2023-03-06T07:17:37.535Z,3.00
2023-03-06T07:19:39.655Z,3.00
2023-03-06T07:21:41.370Z,3.00
2023-03-06T07:23:43.002Z,3.10
2023-03-06T07:25:44.616Z,3.30
2023-03-06T07:27:52.698Z,3.30
2023-03-06T07:29:55.325Z,3.40
2023-03-06T07:31:56.890Z,3.40
2023-03-06T07:33:58.575Z,3.50
2023-03-06T07:36:00.279Z,3.50
2023-03-06T07:38:02.136Z,3.50
2023-03-06T07:40:04.725Z,3.60
2023-03-06T07:42:07.692Z,3.70
2023-03-06T07:44:09.286Z,3.70
2023-03-06T07:46:11.426Z,3.70
2023-03-06T07:48:14.121Z,3.70
2023-03-06T07:50:15.808Z,3.60
2023-03-06T07:52:17.358Z,3.50
2023-03-06T07:54:18.962Z,3.50
2023-03-06T07:56:20.684Z,3.70
2023-03-06T07:58:22.514Z,3.70
2023-03-06T08:00:24.325Z,3.70
2023-03-06T08:02:25.964Z,3.80
2023-03-06T08:04:29.075Z,3.90
2023-03-06T08:06:32.146Z,3.80
2023-03-06T08:08:34.849Z,3.80
2023-03-06T08:10:36.454Z,3.80
2023-03-06T08:12:38.020Z,3.90
2023-03-06T08:14:39.674Z,4.00
2023-03-06T08:16:41.382Z,4.00
2023-03-06T08:18:45.142Z,4.00
2023-03-06T08:20:47.983Z,4.20
2023-03-06T08:22:49.566Z,4.30
2023-03-06T08:24:53.900Z,4.40
2023-03-06T08:26:55.506Z,4.50
2023-03-06T08:28:58.202Z,4.70
2023-03-06T08:31:07.635Z,4.80
2023-03-06T08:33:09.312Z,4.90
2023-03-06T08:35:11.805Z,4.90
2023-03-06T08:37:13.433Z,5.00
2023-03-06T08:39:15.111Z,5.10
2023-03-06T08:41:16.809Z,5.20
2023-03-06T08:43:18.430Z,5.20
2023-03-06T08:45:22.729Z,5.20
2023-03-06T08:47:24.413Z,5.10
2023-03-06T08:49:26.081Z,5.20
2023-03-06T08:51:28.900Z,5.20
2023-03-06T08:53:42.261Z,5.20
2023-03-06T08:55:44.814Z,5.10
2023-03-06T08:57:46.516Z,5.20
2023-03-06T08:59:48.076Z,5.30
2023-03-06T09:01:49.758Z,5.50
2023-03-06T09:03:53.083Z,5.50
2023-03-06T09:05:54.723Z,5.50
2023-03-06T09:07:56.385Z,5.50
2023-03-06T09:09:58.414Z,5.40
2023-03-06T09:12:00.100Z,5.60
2023-03-06T09:14:01.795Z,5.70
2023-03-06T09:16:03.727Z,5.60
2023-03-06T09:18:05.447Z,5.60
2023-03-06T09:20:10.399Z,5.80
2023-03-06T09:22:12.170Z,5.90
2023-03-06T09:24:13.784Z,6.00
2023-03-06T09:26:15.450Z,6.00
2023-03-06T09:28:17.886Z,5.90
2023-03-06T09:30:19.621Z,5.90
2023-03-06T09:32:21.493Z,5.80
2023-03-06T09:34:23.206Z,5.60
2023-03-06T09:36:24.894Z,5.80
2023-03-06T09:38:27.639Z,5.80
2023-03-06T09:40:48.156Z,5.60
2023-03-06T09:42:49.882Z,5.90
2023-03-06T09:44:55.650Z,6.00
2023-03-06T09:47:07.111Z,5.90
2023-03-06T09:49:18.346Z,5.90
2023-03-06T09:51:22.802Z,5.80
2023-03-06T09:53:33.621Z,5.80
2023-03-06T09:55:40.224Z,5.90
2023-03-06T09:57:44.544Z,5.90
2023-03-06T09:59:48.255Z,5.90
2023-03-06T10:02:02.649Z,5.80
2023-03-06T10:04:10.134Z,5.70
2023-03-06T10:06:15.913Z,5.70
2023-03-06T10:08:17.689Z,5.80
2023-03-06T10:10:24.065Z,5.80
2023-03-06T10:12:28.455Z,5.90
2023-03-06T10:14:42.348Z,5.60
2023-03-06T10:16:44.148Z,5.80
2023-03-06T10:18:45.932Z,5.70
2023-03-06T10:20:49.739Z,5.80
2023-03-06T10:23:05.375Z,5.90
2023-03-06T10:25:07.244Z,6.00
2023-03-06T10:27:14.828Z,5.80
2023-03-06T10:29:28.654Z,5.90
2023-03-06T10:31:32.093Z,5.90
2023-03-06T10:33:52.607Z,5.90
2023-03-06T10:35:55.101Z,6.10
2023-03-06T10:38:15.537Z,5.90
2023-03-06T10:40:20.373Z,5.80
2023-03-06T10:42:22.706Z,5.80
2023-03-06T10:44:25.022Z,5.80
2023-03-06T10:46:29.648Z,5.80
2023-03-06T10:48:35.798Z,5.80
2023-03-06T10:50:37.550Z,5.90
2023-03-06T10:52:39.120Z,5.90
2023-03-06T10:54:42.541Z,5.90
2023-03-06T10:56:45.157Z,5.90
2023-03-06T10:58:46.838Z,6.00
2023-03-06T11:00:59.457Z,6.10
2023-03-06T11:03:07.246Z,6.00
2023-03-06T11:05:19.229Z,6.00
2023-03-06T11:07:20.917Z,5.90
2023-03-06T11:09:24.592Z,5.90
2023-03-06T11:11:37.142Z,5.80
2023-03-06T11:13:40.946Z,5.90
2023-03-06T11:15:54.754Z,5.90
2023-03-06T11:18:00.871Z,5.80
2023-03-06T11:20:14.353Z,5.80
2023-03-06T11:22:19.279Z,5.80
2023-03-06T11:24:21.379Z,5.80
2023-03-06T11:26:28.996Z,6.00
2023-03-06T11:28:36.995Z,6.10
2023-03-06T11:30:42.199Z,6.20
2023-03-06T11:32:47.990Z,6.00
2023-03-06T11:34:50.710Z,5.80
2023-03-06T11:36:58.429Z,6.00
2023-03-06T11:39:00.588Z,6.00
2023-03-06T11:41:04.558Z,6.00
2023-03-06T11:43:13.914Z,6.00
2023-03-06T11:45:21.820Z,6.00
2023-03-06T11:47:25.863Z,6.10
2023-03-06T11:49:39.522Z,6.10
2023-03-06T11:51:43.154Z,6.10
2023-03-06T11:53:44.730Z,6.30
2023-03-06T11:55:46.354Z,6.40
2023-03-06T11:58:02.042Z,6.60
2023-03-06T12:00:03.715Z,6.80
2023-03-06T12:02:05.320Z,6.80
2023-03-06T12:04:07.040Z,6.80
2023-03-06T12:06:17.850Z,6.60
2023-03-06T12:08:28.652Z,6.60
2023-03-06T12:10:33.409Z,6.60
2023-03-06T12:12:45.295Z,6.50
2023-03-06T12:15:05.705Z,6.60
2023-03-06T12:17:13.311Z,6.60
2023-03-06T12:19:33.682Z,7.10
2023-03-06T12:21:50.624Z,7.20
2023-03-06T12:23:55.492Z,7.50
2023-03-06T12:26:02.235Z,7.50
2023-03-06T12:28:23.027Z,6.90
2023-03-06T12:30:43.603Z,7.10
2023-03-06T12:33:04.179Z,7.30
2023-03-06T12:35:08.836Z,7.40
2023-03-06T12:37:10.410Z,7.30
2023-03-06T12:39:21.194Z,7.20
2023-03-06T12:41:32.031Z,7.20
2023-03-06T12:43:33.631Z,7.30
2023-03-06T12:45:37.110Z,7.10
2023-03-06T12:47:41.842Z,7.00
2023-03-06T12:49:46.377Z,7.10
2023-03-06T12:51:49.289Z,6.90
2023-03-06T12:53:51.441Z,6.70
2023-03-06T12:55:54.031Z,6.70
2023-03-06T12:57:55.730Z,6.70
2023-03-06T12:59:57.396Z,6.70
2023-03-06T13:02:14.489Z,6.60
2023-03-06T13:04:34.902Z,6.60
2023-03-06T13:06:49.817Z,6.60
2023-03-06T13:08:52.764Z,6.70
2023-03-06T13:11:13.415Z,6.70
2023-03-06T13:13:27.186Z,6.50
2023-03-06T13:15:45.884Z,6.70
2023-03-06T13:17:47.522Z,6.60
2023-03-06T13:19:49.408Z,6.90
2023-03-06T13:21:53.675Z,7.00
2023-03-06T13:24:03.252Z,6.80
2023-03-06T13:26:08.306Z,6.90
2023-03-06T13:28:21.680Z,7.10
2023-03-06T13:30:38.397Z,7.00
2023-03-06T13:32:40.202Z,7.00
2023-03-06T13:34:43.313Z,6.80
2023-03-06T13:36:45.128Z,6.80
2023-03-06T13:38:53.079Z,6.80
2023-03-06T13:41:14.659Z,6.80
2023-03-06T13:43:19.623Z,6.70
2023-03-06T13:45:24.332Z,6.80
2023-03-06T13:48:03.172Z,6.70
2023-03-06T13:50:13.976Z,6.50
2023-03-06T13:52:21.181Z,6.50
2023-03-06T13:54:33.875Z,6.60
2023-03-06T13:56:44.334Z,6.70
2023-03-06T13:58:52.027Z,6.70
2023-03-06T14:00:56.711Z,6.60
2023-03-06T14:02:58.377Z,6.70
2023-03-06T14:05:01.343Z,6.70
2023-03-06T14:07:09.654Z,6.60
2023-03-06T14:09:28.874Z,6.50
2023-03-06T14:11:30.785Z,6.50
2023-03-06T14:13:45.243Z,6.50
2023-03-06T14:15:53.094Z,6.50
2023-03-06T14:17:54.791Z,6.50
2023-03-06T14:19:59.963Z,6.60
2023-03-06T14:22:03.626Z,6.60
2023-03-06T14:24:05.824Z,6.40
2023-03-06T14:26:17.662Z,6.50
2023-03-06T14:28:26.877Z,6.60
2023-03-06T14:30:28.480Z,6.70
2023-03-06T14:32:30.206Z,6.60
2023-03-06T14:34:50.220Z,6.50
2023-03-06T14:36:53.414Z,6.50
2023-03-06T14:38:58.906Z,6.50
2023-03-06T14:41:01.482Z,6.50
2023-03-06T14:43:10.349Z,6.50
2023-03-06T14:45:17.126Z,6.50
2023-03-06T14:47:24.333Z,6.60
2023-03-06T14:49:26.177Z,6.60
2023-03-06T14:51:28.206Z,6.50
2023-03-06T14:53:31.936Z,6.40
2023-03-06T14:55:34.795Z,6.50
2023-03-06T14:57:36.407Z,6.40
2023-03-06T14:59:40.689Z,6.50
2023-03-06T15:01:45.567Z,6.50
2023-03-06T15:03:49.254Z,6.40
2023-03-06T15:05:51.294Z,6.40
2023-03-06T15:08:17.588Z,6.30
2023-03-06T15:10:27.516Z,6.40
2023-03-06T15:12:33.963Z,6.40
2023-03-06T15:14:39.985Z,6.40
2023-03-06T15:16:41.598Z,6.30
2023-03-06T15:18:54.901Z,6.30
2023-03-06T15:21:09.743Z,6.30
2023-03-06T15:23:24.410Z,6.30
2023-03-06T15:25:30.236Z,6.30
2023-03-06T15:27:32.133Z,6.30
2023-03-06T15:29:37.597Z,6.20
2023-03-06T15:31:45.479Z,6.20
2023-03-06T15:34:05.859Z,6.10
2023-03-06T15:36:18.200Z,6.10
2023-03-06T15:38:22.664Z,6.10
2023-03-06T15:40:25.423Z,6.00
2023-03-06T15:42:27.984Z,6.00
2023-03-06T15:44:32.037Z,5.90
2023-03-06T15:46:34.028Z,5.90
2023-03-06T15:48:35.702Z,5.90
2023-03-06T15:50:37.248Z,5.90
2023-03-06T15:52:38.853Z,5.90
2023-03-06T15:54:40.552Z,5.90
2023-03-06T15:56:43.486Z,5.90
2023-03-06T15:58:46.131Z,5.80
2023-03-06T16:00:47.697Z,5.80
2023-03-06T16:02:49.303Z,5.80
2023-03-06T16:04:51.440Z,5.70
2023-03-06T16:06:53.136Z,5.70
2023-03-06T16:08:54.819Z,5.70
2023-03-06T16:10:56.784Z,5.80
2023-03-06T16:13:03.764Z,6.40
2023-03-06T16:15:06.465Z,6.20
2023-03-06T16:17:10.386Z,5.80
2023-03-06T16:19:25.901Z,5.60
2023-03-06T16:21:28.326Z,5.60
2023-03-06T16:23:30.008Z,5.50
2023-03-06T16:25:31.758Z,5.40
2023-03-06T16:27:33.376Z,5.40
2023-03-06T16:29:35.118Z,5.40
2023-03-06T16:31:36.807Z,5.40
2023-03-06T16:33:38.445Z,5.40
2023-03-06T16:35:41.104Z,5.30
2023-03-06T16:37:42.856Z,5.40
2023-03-06T16:39:44.482Z,5.40
2023-03-06T16:41:46.342Z,5.30
2023-03-06T16:43:48.224Z,5.30
2023-03-06T16:45:49.958Z,5.30
2023-03-06T16:47:51.703Z,5.30
2023-03-06T16:49:57.702Z,5.20
2023-03-06T16:52:00.441Z,5.20
2023-03-06T16:54:02.012Z,5.20
2023-03-06T16:56:03.676Z,5.20
2023-03-06T16:58:05.334Z,5.20
2023-03-06T17:00:07.984Z,5.10
2023-03-06T17:02:10.598Z,5.10
2023-03-06T17:04:12.469Z,5.00
2023-03-06T17:06:18.088Z,5.00
2023-03-06T17:08:19.781Z,5.00
2023-03-06T17:10:25.552Z,5.10
2023-03-06T17:12:27.152Z,5.10
2023-03-06T17:14:29.800Z,5.10
2023-03-06T17:16:31.364Z,5.10
2023-03-06T17:18:33.022Z,5.10
2023-03-06T17:20:34.703Z,5.10
2023-03-06T17:22:36.490Z,5.10
2023-03-06T17:24:38.103Z,5.10
2023-03-06T17:26:40.152Z,5.10
2023-03-06T17:28:42.037Z,5.00
2023-03-06T17:30:44.016Z,5.00
2023-03-06T17:32:45.612Z,5.00
2023-03-06T17:34:47.261Z,4.90
2023-03-06T17:36:48.900Z,5.00
2023-03-06T17:38:51.026Z,5.00
2023-03-06T17:40:52.742Z,5.00
2023-03-06T17:42:54.443Z,5.00
2023-03-06T17:44:57.304Z,4.90
2023-03-06T17:46:59.044Z,4.90
2023-03-06T17:49:00.881Z,4.90
2023-03-06T17:51:03.313Z,4.90
2023-03-06T17:53:05.025Z,4.90
2023-03-06T17:55:07.059Z,4.90
2023-03-06T17:57:08.724Z,4.80
2023-03-06T17:59:10.518Z,4.80
2023-03-06T18:01:13.903Z,4.80
2023-03-06T18:03:15.670Z,4.80
2023-03-06T18:05:20.422Z,4.80
2023-03-06T18:07:22.153Z,4.90
2023-03-06T18:09:24.018Z,4.80
2023-03-06T18:11:25.915Z,4.80
2023-03-06T18:13:27.518Z,4.80
2023-03-06T18:15:29.152Z,4.80
2023-03-06T18:17:30.741Z,4.80
2023-03-06T18:19:32.451Z,4.90
2023-03-06T18:21:34.158Z,4.80
2023-03-06T18:23:36.269Z,4.80
2023-03-06T18:25:37.846Z,4.80
2023-03-06T18:27:39.479Z,4.80
2023-03-06T18:29:41.643Z,4.80
2023-03-06T18:31:43.479Z,4.80
2023-03-06T18:33:47.587Z,4.80
2023-03-06T18:35:49.395Z,4.80
2023-03-06T18:37:52.153Z,4.80
2023-03-06T18:39:54.116Z,4.90
2023-03-06T18:41:56.485Z,4.80
2023-03-06T18:43:59.277Z,4.80
2023-03-06T18:46:00.992Z,4.70
2023-03-06T18:48:04.999Z,4.70
2023-03-06T18:50:06.802Z,4.70
2023-03-06T18:52:08.475Z,4.80
2023-03-06T18:54:12.027Z,4.80
2023-03-06T18:56:18.210Z,4.80
2023-03-06T18:58:20.321Z,4.70
2023-03-06T19:00:22.322Z,4.70
2023-03-06T19:02:24.154Z,4.70
2023-03-06T19:04:26.254Z,4.70
2023-03-06T19:06:28.748Z,4.70
2023-03-06T19:08:30.457Z,4.60
2023-03-06T19:10:34.749Z,4.60
2023-03-06T19:12:36.520Z,4.60
2023-03-06T19:14:38.184Z,4.50
2023-03-06T19:16:40.260Z,4.60
2023-03-06T19:18:41.862Z,4.50
2023-03-06T19:20:44.477Z,4.50
2023-03-06T19:22:46.131Z,4.50
2023-03-06T19:24:50.026Z,4.50
2023-03-06T19:26:51.968Z,4.50
2023-03-06T19:28:53.709Z,4.60
2023-03-06T19:30:55.489Z,4.60
2023-03-06T19:32:57.310Z,4.50
2023-03-06T19:34:59.316Z,4.50
2023-03-06T19:37:00.986Z,4.50
2023-03-06T19:39:03.614Z,4.50
2023-03-06T19:41:05.449Z,4.50
2023-03-06T19:43:07.281Z,4.50
2023-03-06T19:45:09.101Z,4.50
2023-03-06T19:47:10.912Z,4.50
2023-03-06T19:49:14.011Z,4.50
2023-03-06T19:51:15.774Z,4.50
2023-03-06T19:53:17.554Z,4.50
2023-03-06T19:55:19.247Z,4.50
2023-03-06T19:57:21.085Z,4.50
2023-03-06T19:59:22.883Z,4.40
2023-03-06T20:01:25.653Z,4.40
2023-03-06T20:03:27.418Z,4.40
2023-03-06T20:05:29.149Z,4.40
2023-03-06T20:07:30.923Z,4.40
2023-03-06T20:09:32.952Z,4.40
2023-03-06T20:11:34.820Z,4.40
2023-03-06T20:13:38.161Z,4.30
2023-03-06T20:15:41.257Z,4.40
2023-03-06T20:17:43.073Z,4.40
2023-03-06T20:19:44.959Z,4.40
2023-03-06T20:21:46.626Z,4.30
2023-03-06T20:23:48.652Z,4.30
2023-03-06T20:25:50.316Z,4.40
2023-03-06T20:27:51.908Z,4.30
2023-03-06T20:29:53.607Z,4.30
2023-03-06T20:31:56.387Z,4.40
2023-03-06T20:33:58.908Z,4.30
2023-03-06T20:36:00.557Z,4.30
2023-03-06T20:38:02.315Z,4.30
2023-03-06T20:40:04.794Z,4.30
2023-03-06T20:42:06.511Z,4.20
2023-03-06T20:44:08.944Z,4.20
2023-03-06T20:46:12.166Z,4.30
2023-03-06T20:48:13.829Z,4.30
2023-03-06T20:50:15.652Z,4.30
2023-03-06T20:52:17.305Z,4.30
2023-03-06T20:54:19.303Z,4.30
2023-03-06T20:56:22.411Z,4.30
2023-03-06T20:58:26.676Z,4.20
2023-03-06T21:00:28.288Z,4.20
2023-03-06T21:02:30.120Z,4.20
2023-03-06T21:04:31.770Z,4.20
2023-03-06T21:06:33.594Z,4.20
2023-03-06T21:08:35.487Z,4.20
2023-03-06T21:10:37.502Z,4.20
2023-03-06T21:12:39.305Z,4.20
2023-03-06T21:14:41.107Z,4.20
2023-03-06T21:16:43.302Z,4.20
2023-03-06T21:18:45.101Z,4.20
2023-03-06T21:20:46.910Z,4.20
2023-03-06T21:22:53.577Z,4.20
2023-03-06T21:24:55.599Z,4.20
2023-03-06T21:26:57.351Z,4.20
2023-03-06T21:28:59.024Z,4.10
2023-03-06T21:31:01.093Z,4.10
2023-03-06T21:33:03.861Z,4.10
2023-03-06T21:35:05.692Z,4.10
2023-03-06T21:37:07.279Z,4.20
2023-03-06T21:39:09.216Z,4.20
2023-03-06T21:41:13.022Z,4.10
2023-03-06T21:43:17.398Z,4.10
2023-03-06T21:45:19.025Z,4.10
2023-03-06T21:47:20.780Z,4.00
2023-03-06T21:49:26.051Z,4.00
2023-03-06T21:51:28.033Z,4.00
2023-03-06T21:53:29.772Z,4.00
2023-03-06T21:55:31.416Z,4.10
2023-03-06T21:57:33.065Z,4.10
2023-03-06T21:59:34.695Z,4.10
2023-03-06T22:01:36.409Z,4.10
2023-03-06T22:03:38.617Z,4.10
2023-03-06T22:05:40.321Z,4.10
2023-03-06T22:07:42.273Z,4.10
2023-03-06T22:09:43.915Z,4.10
2023-03-06T22:11:45.668Z,4.10
2023-03-06T22:13:48.115Z,4.00
2023-03-06T22:15:52.990Z,4.00
2023-03-06T22:17:54.578Z,4.10
2023-03-06T22:19:56.409Z,4.10
2023-03-06T22:21:58.032Z,4.10
2023-03-06T22:23:59.665Z,4.00
2023-03-06T22:26:12.600Z,4.00
2023-03-06T22:28:18.284Z,4.00
2023-03-06T22:30:19.981Z,4.10
2023-03-06T22:32:21.691Z,4.10
2023-03-06T22:34:23.305Z,4.00
2023-03-06T22:36:25.488Z,4.20
2023-03-06T22:38:27.057Z,4.40
2023-03-06T22:40:28.639Z,4.30
2023-03-06T22:42:30.910Z,4.20
2023-03-06T22:44:32.483Z,4.20
2023-03-06T22:46:36.578Z,4.10
2023-03-06T22:48:38.437Z,4.10
2023-03-06T22:50:42.326Z,4.10
2023-03-06T22:52:44.185Z,4.10
2023-03-06T22:54:45.921Z,4.20
2023-03-06T22:56:47.528Z,4.10
2023-03-06T22:58:49.218Z,4.10
2023-03-06T23:00:50.890Z,4.10
2023-03-06T23:02:52.654Z,4.10
2023-03-06T23:04:55.452Z,4.10
2023-03-06T23:06:57.307Z,4.10
2023-03-06T23:09:00.201Z,4.10
2023-03-06T23:11:02.077Z,4.00
2023-03-06T23:13:03.865Z,4.00
2023-03-06T23:15:05.652Z,4.00
2023-03-06T23:17:10.364Z,4.00
2023-03-06T23:19:12.322Z,4.10
2023-03-06T23:21:16.469Z,4.00
2023-03-06T23:23:22.588Z,4.00
2023-03-06T23:25:24.879Z,4.00
2023-03-06T23:27:26.505Z,4.00
2023-03-06T23:29:28.354Z,4.00
2023-03-06T23:31:30.580Z,4.00
2023-03-06T23:33:32.196Z,4.00
2023-03-06T23:35:34.860Z,3.90
2023-03-06T23:37:36.482Z,4.00
2023-03-06T23:39:38.052Z,4.00
2023-03-06T23:41:40.755Z,4.00
2023-03-06T23:43:43.025Z,4.00
2023-03-06T23:45:51.793Z,3.90
2023-03-06T23:47:53.456Z,3.90
2023-03-06T23:49:56.934Z,3.90
2023-03-06T23:51:58.586Z,3.90
2023-03-06T23:54:00.382Z,3.90
2023-03-06T23:56:03.987Z,3.90
2023-03-06T23:58:05.658Z,3.90
